x

Sheboygan, Wi (sgnw3) Weather Station

5:00am - Thu 29th Sep 2016 All times are CDT. -5 hours from GMT.

  • Wind
    25mph, 29mph gusts
  • Air Temp 57°f
  • Sea Pressure 1023.2mb
  • Sheboygan, Wi
  • Sheboygan, Wi

More Historic Weather Station data

Upgrade to MSW Pro to gain access to the past 30 days of data for over 8000 Wavebouys and Weather Stations around the globe.

Join Pro

Comparision Forecast

View Surf forecast
   
Thu 09/29 5:00am 25 29 mph 1023.2mb 57f
4:00am 26 30 mph 1022.9mb 58f
3:00am 25 28 mph 1022.7mb 57f
2:00am 25 29 mph 1022.3mb 58f
1:00am 28 31 mph 1022.2mb 58f
12:00am 28 31 mph 1022.3mb 58f
Wed 09/28 11:00pm 25 26 mph 1022.1mb 58f
10:00pm 24 28 mph 1021.7mb 58f
9:00pm 23 25 mph 1020.9mb 59f
8:00pm 20 21 mph 1020.8mb 58f
7:00pm 23 24 mph 1020.4mb 60f
6:00pm 22 24 mph 1019.8mb 60f
5:00pm 22 24 mph 1019.1mb 60f
4:00pm 24 26 mph 1018.4mb 59f
3:00pm 20 22 mph 1017.3mb 58f
2:00pm 17 20 mph 1016.3mb 58f
1:00pm 15 16 mph 1015.9mb 57f
12:00pm 15
mph
1014.8mb 56f
11:00am 16 17 mph 1013.9mb 55f
10:00am 18 21 mph 1013mb 54f
9:00am 14 16 mph 1012.1mb 53f
8:00am 10 14 mph 1011.3mb 51f
7:00am 10 13 mph 1010.5mb 50f
6:00am 8 9 mph 1009.8mb 51f
5:00am 7 8 mph 1009.1mb 50f
4:00am 6 7 mph 1008.6mb 50f
3:00am 6 8 mph 1008.2mb 50f
2:00am 8
mph
1007.9mb 50f
1:00am 10 11 mph 1007.7mb 50f
12:00am 9 11 mph 1007.4mb 50f
Tue 09/27 11:00pm 9 11 mph 1007.5mb 51f
10:00pm 8 9 mph 1007.5mb 51f
9:00pm 8 11 mph 1007.5mb 52f
8:00pm 7 8 mph 1007.3mb 52f
7:00pm 10 13 mph 1007.2mb 53f
6:00pm 16 21 mph 1006.7mb 56f
5:00pm 16 18 mph 1006.2mb 56f
4:00pm 17 22 mph 1005.7mb 57f
3:00pm 18 22 mph 1005.3mb 57f
2:00pm 15 18 mph 1005.3mb 56f
1:00pm 22 25 mph 1005.2mb 57f
12:00pm 20 22 mph 1005.3mb 56f
11:00am 16 18 mph 1005.2mb 55f
10:00am 17 22 mph 1005.3mb 54f
9:00am 21 24 mph 1005.2mb 54f
8:00am 16 21 mph 1005.2mb 53f
7:00am 13 15 mph 1005.5mb 53f
6:00am 14 16 mph 1005.6mb 53f
5:00am 14 16 mph 1006mb 52f
4:00am 14 16 mph 1006.3mb 53f
3:00am 15 20 mph 1006.8mb 54f
2:00am 15 17 mph 1007.3mb 55f
1:00am 14 17 mph 1007.7mb 55f
12:00am 15 18 mph 1008.1mb 55f
Mon 09/26 11:00pm 10 13 mph 1008.9mb 55f
10:00pm 11 14 mph 1009.6mb 56f
9:00pm 11 14 mph 1010.1mb 58f
8:00pm 10 15 mph 1010.2mb 60f
7:00pm 9 11 mph 1009.9mb 62f
6:00pm 15 18 mph 1009.6mb 64f
5:00pm 15 18 mph 1009.4mb 63f
4:00pm 28 32 mph 1009.7mb 63f
3:00pm 20 24 mph 1009.5mb 63f
2:00pm 30 37 mph 1009.5mb 63f
1:00pm 20 26 mph 1009.8mb 62f
12:00pm 24 31 mph 1009.6mb 62f
11:00am 22 30 mph 1010.3mb 61f
10:00am 26 32 mph 1010.8mb 58f
9:00am 21 25 mph 1010.8mb 57f
8:00am 15 18 mph 1011.2mb 56f
7:00am 13 15 mph 1011.5mb 56f
6:00am 15 18 mph 1011.4mb 58f
5:00am 11 16 mph 1011.3mb 59f
4:00am 13 16 mph 1011.2mb 60f
3:00am 16 22 mph 1011.3mb 61f
2:00am 14 18 mph 1011.1mb 61f
1:00am 11 15 mph 1010.9mb 63f
12:00am 9 13 mph 1011mb 63f
Sun 09/25 11:00pm 13 17 mph 1011.2mb 65f
10:00pm 23 28 mph 1010.9mb 68f
9:00pm 8
mph
1010.8mb 69f
8:00pm 13
mph
1010.8mb 70f
7:00pm 21 24 mph 1010.9mb 68f
6:00pm 23 24 mph 1010.7mb 65f
5:00pm 22 25 mph 1011.7mb 67f
4:00pm 15 16 mph 1011.6mb 64f
3:00pm 14 15 mph 1012.7mb 64f
2:00pm 17 18 mph 1014.4mb 64f
1:00pm 15 16 mph 1015.5mb 64f
12:00pm 14 15 mph 1016.4mb 64f